Aérodrome :
LOGIN :

S'inscrire | Disclaimer

   EN    FR    IT 

 










Légende :    VFR   VFR Marginal   IFR   IFR Intensif   IFR Très Intensif
Visi : 
Plafond : 
>= 8 km
>= 3000ft
5 à 8 km
1000 à 3000 ft
1500m à 5 km
500 à 1000 ft
800 à 1500m
200 à 500 ft
< 800m
< 200 ft
Symboles :   Orages  Brouillard  Fortes neiges  Fortes précipitations  Vent > 20 kt
SIGMETs :   Divers  Orages  Givrage  Turbulence  Onde Orograph.  Cendres Volcan.







- Altitude de l'aérodrome : 1043 ft
- Code IATA : SLD


LZSL - Sliac

DERNIER METAR :
  • 241500Z 33006KT 9999 SCT064 20/06 Q1016

METARs EXPIRÉS :
  • 241430Z 22009KT 160V240 9999 SCT063 20/06 Q1017
  • 241400Z 17003KT 120V230 9999 SCT064 20/05 Q1017
  • 241330Z 00000KT CAVOK 19/04 Q1018
  • 241300Z VRB02KT CAVOK 20/04 Q1018
  • 241230Z VRB02KT CAVOK 19/04 Q1019

TAF TAF LZSL
Valide du 24 à 15h jusqu'au 25 à 00h UTC


241400Z 2415/2500 VRB02KT CAVOK
TEMPO 2415/2416 07005KT
BECMG 2418/2420 9999 SCT030 BKN080
Pas de NOTAMs connus pour ce terrain.



MET'MAP, la Météo Aéronautique d'un coup d'oeil ! - Copyright ORBIFLY Décembre 2007 - Disclaimer

ORBIFLY MET'MAP TEAM :

Programmation & Développement : Alexandra Zaïnal
Conception & Développement : Baudouin d'Aumeries
Co-Programmation & Développement : Marc-Olivier Méhu
Soutien technique & logistique : Manuel Goepfert

Contact : metmap@orbifly.com




SOURCES & CREDITS :

   NOAA